createdAt,value
2022-10-18T00:01:08.850Z,36.00
2022-10-18T00:06:12.107Z,34.00
2022-10-18T00:08:40.491Z,35.25
2022-10-18T00:11:08.659Z,34.00
2022-10-18T00:13:37.509Z,33.00
2022-10-18T00:16:12.974Z,32.50
2022-10-18T00:18:41.845Z,33.33
2022-10-18T00:21:18.687Z,33.00
2022-10-18T00:23:48.419Z,31.25
2022-10-18T00:26:19.680Z,32.50
2022-10-18T00:28:53.355Z,31.67
2022-10-18T00:31:24.808Z,32.25
2022-10-18T00:33:55.547Z,34.00
2022-10-18T00:36:24.958Z,30.50
2022-10-18T00:38:53.916Z,31.25
2022-10-18T00:41:25.918Z,32.00
2022-10-18T00:43:57.357Z,31.00
2022-10-18T00:46:33.330Z,32.00
2022-10-18T00:49:05.949Z,32.50
2022-10-18T00:51:41.938Z,31.00
2022-10-18T00:54:12.167Z,31.75
2022-10-18T00:56:40.638Z,31.33
2022-10-18T00:59:09.131Z,32.25
2022-10-18T01:01:38.565Z,31.00
2022-10-18T01:04:07.136Z,31.00
2022-10-18T01:06:42.585Z,35.00
2022-10-18T01:09:26.387Z,29.33
2022-10-18T01:12:33.315Z,30.50
2022-10-18T01:15:04.438Z,32.00
2022-10-18T01:18:16.227Z,30.25
2022-10-18T01:21:02.946Z,32.25
2022-10-18T01:24:04.727Z,31.25
2022-10-18T01:27:14.937Z,31.00
2022-10-18T01:29:43.122Z,27.00
2022-10-18T01:32:21.810Z,29.00
2022-10-18T01:34:53.431Z,29.00
2022-10-18T01:37:23.089Z,28.25
2022-10-18T01:39:54.927Z,30.25
2022-10-18T01:42:23.398Z,28.00
2022-10-18T01:44:53.207Z,28.00
2022-10-18T01:47:22.017Z,28.25
2022-10-18T01:49:50.247Z,28.75
2022-10-18T01:52:18.666Z,28.25
2022-10-18T01:54:49.507Z,28.00
2022-10-18T01:57:38.207Z,30.00
2022-10-18T02:00:06.409Z,26.33
2022-10-18T02:03:14.231Z,27.00
2022-10-18T02:06:18.645Z,26.00
2022-10-18T02:08:58.397Z,28.00
2022-10-18T02:11:27.850Z,27.00
2022-10-18T02:13:59.685Z,28.00
2022-10-18T02:16:37.228Z,28.00
2022-10-18T02:19:22.117Z,27.00
2022-10-18T02:21:50.707Z,26.50
2022-10-18T02:24:20.227Z,26.50
2022-10-18T02:26:48.598Z,27.75
2022-10-18T02:29:16.929Z,26.00
2022-10-18T02:31:47.819Z,26.50
2022-10-18T02:34:42.729Z,24.50
2022-10-18T02:37:12.774Z,27.75
2022-10-18T02:39:46.278Z,28.00
2022-10-18T02:42:15.471Z,26.00
2022-10-18T02:44:44.087Z,26.00
2022-10-18T02:47:13.175Z,26.00
2022-10-18T02:49:41.597Z,27.00
2022-10-18T02:52:09.827Z,26.33
2022-10-18T02:54:38.411Z,24.00
2022-10-18T02:57:06.567Z,28.00
2022-10-18T02:59:35.590Z,28.00
2022-10-18T03:02:03.907Z,27.00
2022-10-18T03:04:32.350Z,25.50
2022-10-18T03:07:00.526Z,25.00
2022-10-18T03:09:28.937Z,25.00
2022-10-18T03:11:57.395Z,25.67
2022-10-18T03:14:25.738Z,26.00
2022-10-18T03:16:53.878Z,24.25
2022-10-18T03:19:25.265Z,25.00
2022-10-18T03:21:53.598Z,23.00
2022-10-18T03:24:22.220Z,25.25
2022-10-18T03:26:50.578Z,25.00
2022-10-18T03:29:18.937Z,25.00
2022-10-18T03:31:47.082Z,23.00
2022-10-18T03:34:17.157Z,23.33
2022-10-18T03:36:45.376Z,23.00
2022-10-18T03:39:14.051Z,25.75
2022-10-18T03:41:42.289Z,26.00
2022-10-18T03:44:10.781Z,26.33
2022-10-18T03:46:38.938Z,24.33
2022-10-18T03:49:07.377Z,27.00
2022-10-18T03:51:35.638Z,24.50
2022-10-18T03:54:04.307Z,23.25
2022-10-18T03:56:33.460Z,28.00
2022-10-18T03:59:03.108Z,26.00
2022-10-18T04:01:31.720Z,28.25
2022-10-18T04:04:00.241Z,28.25
2022-10-18T04:06:28.437Z,28.50
2022-10-18T04:08:57.012Z,25.00
2022-10-18T04:11:25.410Z,28.25
2022-10-18T04:13:53.879Z,28.00
2022-10-18T04:16:22.077Z,27.33
2022-10-18T04:18:50.478Z,29.00
2022-10-18T04:21:18.667Z,28.25
2022-10-18T04:23:51.281Z,28.25
2022-10-18T04:26:19.479Z,30.00
2022-10-18T04:28:48.083Z,29.25
2022-10-18T04:31:16.398Z,29.50
2022-10-18T04:33:44.938Z,28.00
2022-10-18T04:36:13.578Z,28.00
2022-10-18T04:38:42.078Z,30.00
2022-10-18T04:41:10.196Z,27.00
2022-10-18T04:43:38.648Z,28.25
2022-10-18T04:46:06.934Z,28.00
2022-10-18T04:48:35.339Z,29.67
2022-10-18T04:51:03.689Z,27.25
2022-10-18T04:53:33.084Z,27.00
2022-10-18T04:56:01.469Z,29.00
2022-10-18T04:58:30.009Z,28.00
2022-10-18T05:00:58.326Z,28.50
2022-10-18T05:03:26.791Z,29.00
2022-10-18T05:06:01.875Z,28.25
2022-10-18T05:08:33.164Z,29.25
2022-10-18T05:11:02.270Z,31.00
2022-10-18T05:14:20.807Z,28.00
2022-10-18T05:16:49.134Z,29.50
2022-10-18T05:19:17.668Z,26.33
2022-10-18T05:21:46.519Z,28.25
2022-10-18T05:24:14.887Z,26.67
2022-10-18T05:26:43.157Z,27.25
2022-10-18T05:29:11.782Z,29.00
2022-10-18T05:32:29.998Z,27.33
2022-10-18T05:35:26.992Z,28.25
2022-10-18T05:38:05.179Z,26.75
2022-10-18T05:40:39.720Z,26.50
2022-10-18T05:43:08.054Z,27.00
2022-10-18T05:45:36.579Z,27.00
2022-10-18T05:48:05.761Z,28.00
2022-10-18T05:50:36.744Z,27.75
2022-10-18T05:53:12.256Z,28.67
2022-10-18T05:55:46.960Z,29.00
2022-10-18T05:58:15.230Z,25.00
2022-10-18T06:00:43.983Z,28.00
2022-10-18T06:03:12.351Z,28.00
2022-10-18T06:05:40.943Z,29.00
2022-10-18T06:08:10.661Z,29.00
2022-10-18T06:10:41.224Z,28.50
2022-10-18T06:13:10.363Z,27.00
2022-10-18T06:15:39.105Z,27.00
2022-10-18T06:18:08.381Z,26.00
2022-10-18T06:20:37.171Z,28.75
2022-10-18T06:23:05.481Z,28.00
2022-10-18T06:25:34.168Z,28.25
2022-10-18T06:28:07.935Z,28.50
2022-10-18T06:30:39.031Z,26.50
2022-10-18T06:33:07.360Z,28.50
2022-10-18T06:35:35.923Z,27.50
2022-10-18T06:38:04.623Z,30.00
2022-10-18T06:40:38.346Z,27.25
2022-10-18T06:43:20.102Z,26.00
2022-10-18T06:45:50.791Z,29.00
2022-10-18T06:50:58.872Z,28.00
2022-10-18T06:53:30.847Z,29.00
2022-10-18T06:56:01.800Z,28.00
2022-10-18T06:58:31.795Z,28.25
2022-10-18T07:01:00.494Z,29.00
2022-10-18T07:03:29.821Z,30.33
2022-10-18T07:06:03.133Z,31.00
2022-10-18T07:08:32.045Z,30.00
2022-10-18T07:11:00.901Z,32.75
2022-10-18T07:13:33.881Z,32.25
2022-10-18T07:16:06.202Z,31.00
2022-10-18T07:18:35.931Z,31.50
2022-10-18T07:21:06.237Z,31.00
2022-10-18T07:23:36.648Z,31.50
2022-10-18T07:26:16.338Z,31.00
2022-10-18T07:28:47.130Z,34.50
2022-10-18T07:31:16.867Z,29.00
2022-10-18T07:33:45.238Z,30.00
2022-10-18T07:36:14.217Z,31.00
2022-10-18T07:38:42.617Z,30.00
2022-10-18T07:41:13.741Z,32.50
2022-10-18T07:43:44.817Z,32.00
2022-10-18T07:46:15.368Z,31.25
2022-10-18T07:48:44.086Z,30.50
2022-10-18T07:51:13.437Z,34.00
2022-10-18T07:53:41.949Z,33.00
2022-10-18T07:56:16.609Z,31.00
2022-10-18T07:58:47.342Z,30.25
2022-10-18T08:01:16.371Z,29.00
2022-10-18T08:03:44.807Z,29.75
2022-10-18T08:06:16.498Z,29.00
2022-10-18T08:08:45.750Z,30.00
2022-10-18T08:11:15.667Z,30.50
2022-10-18T08:13:44.247Z,31.00
2022-10-18T08:19:01.914Z,32.00
2022-10-18T08:21:31.035Z,31.00
2022-10-18T08:23:59.745Z,31.00
2022-10-18T08:26:28.787Z,34.00
2022-10-18T08:29:17.531Z,34.00
2022-10-18T08:31:45.725Z,33.33
2022-10-18T08:34:18.691Z,33.00
2022-10-18T08:36:48.466Z,34.00
2022-10-18T08:39:16.980Z,32.25
2022-10-18T08:42:15.448Z,30.75
2022-10-18T08:44:51.880Z,32.25
2022-10-18T08:47:23.877Z,31.75
2022-10-18T08:49:59.057Z,32.00
2022-10-18T08:52:36.438Z,33.25
2022-10-18T08:55:29.348Z,34.00
2022-10-18T08:57:58.751Z,35.00
2022-10-18T09:00:35.013Z,36.25
2022-10-18T09:03:22.165Z,35.00
2022-10-18T09:05:56.393Z,34.00
2022-10-18T09:08:28.031Z,35.00
2022-10-18T09:11:35.069Z,34.00
2022-10-18T09:14:35.867Z,35.25
2022-10-18T09:17:23.099Z,36.00
2022-10-18T09:20:12.207Z,36.00
2022-10-18T09:22:54.429Z,37.00
2022-10-18T09:25:26.432Z,36.75
2022-10-18T09:28:14.361Z,35.25
2022-10-18T09:30:42.949Z,35.25
2022-10-18T09:33:39.862Z,33.00
2022-10-18T09:36:10.867Z,33.00
2022-10-18T09:39:09.430Z,33.00
2022-10-18T09:42:02.570Z,34.50
2022-10-18T09:44:36.619Z,32.75
2022-10-18T09:47:28.100Z,32.67
2022-10-18T09:50:03.778Z,29.25
2022-10-18T09:52:41.959Z,33.50
2022-10-18T09:55:18.076Z,32.00
2022-10-18T09:57:52.783Z,30.33
2022-10-18T10:00:32.144Z,31.00
2022-10-18T10:03:02.281Z,29.50
2022-10-18T10:05:30.694Z,29.00
2022-10-18T10:08:02.830Z,29.00
2022-10-18T10:10:32.347Z,28.25
2022-10-18T10:13:17.277Z,30.00
2022-10-18T10:15:57.906Z,28.25
2022-10-18T10:18:35.052Z,28.00
2022-10-18T10:21:08.271Z,26.00
2022-10-18T10:23:39.261Z,27.00
2022-10-18T10:26:21.251Z,26.50
2022-10-18T10:28:50.265Z,26.25
2022-10-18T10:31:24.658Z,27.00
2022-10-18T10:34:07.053Z,26.00
2022-10-18T10:36:53.431Z,25.00
2022-10-18T10:39:24.732Z,25.25
2022-10-18T10:41:58.644Z,26.00
2022-10-18T10:44:33.790Z,29.00
2022-10-18T10:47:04.742Z,26.00
2022-10-18T10:49:41.197Z,24.25
2022-10-18T10:52:27.784Z,25.00
2022-10-18T10:55:11.276Z,25.00
2022-10-18T10:57:50.724Z,23.25
2022-10-18T11:00:39.510Z,21.75
2022-10-18T11:03:28.669Z,25.00
2022-10-18T11:06:01.216Z,24.75
2022-10-18T11:08:36.697Z,23.33
2022-10-18T11:11:23.145Z,20.00
2022-10-18T11:14:24.763Z,19.50
2022-10-18T11:17:14.318Z,21.00
2022-10-18T11:19:49.142Z,22.00
2022-10-18T11:22:21.940Z,22.00
2022-10-18T11:24:50.253Z,20.50
2022-10-18T11:27:28.838Z,20.00
2022-10-18T11:30:25.231Z,20.00
2022-10-18T11:33:16.311Z,21.25
2022-10-18T11:35:51.509Z,19.00
2022-10-18T11:38:23.326Z,21.00
2022-10-18T11:40:52.008Z,19.50
2022-10-18T11:44:02.607Z,20.00
2022-10-18T11:47:03.621Z,21.00
2022-10-18T11:49:44.966Z,21.25
2022-10-18T11:52:16.350Z,21.25
2022-10-18T11:54:57.298Z,22.25
2022-10-18T11:58:13.220Z,22.25
2022-10-18T12:00:56.522Z,24.25
2022-10-18T12:03:29.761Z,24.00
2022-10-18T12:06:05.095Z,24.75
2022-10-18T12:08:39.241Z,24.00
2022-10-18T12:11:43.962Z,25.00
2022-10-18T12:14:26.443Z,24.75
2022-10-18T12:17:27.886Z,25.00
2022-10-18T12:19:48.580Z,25.50
2022-10-18T12:22:23.870Z,27.00
2022-10-18T12:24:52.830Z,25.25
2022-10-18T12:27:28.851Z,26.33
2022-10-18T12:30:04.753Z,24.25
2022-10-18T12:32:35.785Z,24.50
2022-10-18T12:35:13.801Z,23.50
2022-10-18T12:38:00.369Z,27.00
2022-10-18T12:40:40.783Z,26.25
2022-10-18T12:43:12.040Z,29.00
2022-10-18T12:45:56.154Z,29.25
2022-10-18T12:48:46.062Z,32.50
2022-10-18T12:51:23.082Z,35.50
2022-10-18T12:54:00.840Z,34.25
2022-10-18T12:56:29.167Z,35.25
2022-10-18T12:59:15.949Z,34.50
2022-10-18T13:01:53.710Z,36.00
2022-10-18T13:04:28.622Z,32.75
2022-10-18T13:07:00.122Z,34.33
2022-10-18T13:09:31.141Z,33.00
2022-10-18T13:12:19.406Z,33.00
2022-10-18T13:15:05.773Z,34.00
2022-10-18T13:17:52.821Z,34.00
2022-10-18T13:20:39.670Z,36.00
2022-10-18T13:23:11.136Z,34.00
2022-10-18T13:25:55.241Z,32.75
2022-10-18T13:28:23.551Z,33.50
2022-10-18T13:31:00.101Z,32.00
2022-10-18T13:33:40.360Z,33.67
2022-10-18T13:36:22.730Z,33.00
2022-10-18T13:38:58.042Z,33.00
2022-10-18T13:41:34.534Z,36.50
2022-10-18T13:44:40.590Z,36.25
2022-10-18T13:47:21.471Z,35.25
2022-10-18T13:50:03.275Z,36.00
2022-10-18T13:52:50.684Z,36.50
2022-10-18T13:55:53.573Z,34.25
2022-10-18T13:58:48.827Z,34.33
2022-10-18T14:01:52.758Z,35.00
2022-10-18T14:04:43.479Z,35.75
2022-10-18T14:07:12.718Z,31.75
2022-10-18T14:09:56.112Z,37.00
2022-10-18T14:12:38.979Z,37.00
2022-10-18T14:15:21.670Z,37.25
2022-10-18T14:17:53.181Z,38.00
2022-10-18T14:20:55.095Z,40.00
2022-10-18T14:23:36.622Z,39.00
2022-10-18T14:26:16.962Z,39.00
2022-10-18T14:28:59.502Z,38.00
2022-10-18T14:31:28.831Z,36.50
2022-10-18T14:33:59.071Z,40.25
2022-10-18T14:36:39.821Z,39.00
2022-10-18T14:39:23.033Z,41.00
2022-10-18T14:41:54.578Z,41.00
2022-10-18T14:44:27.053Z,40.00
2022-10-18T14:47:15.510Z,38.33
2022-10-18T14:49:45.348Z,41.00
2022-10-18T14:52:17.583Z,41.75
2022-10-18T14:54:46.658Z,44.00
2022-10-18T14:57:28.963Z,42.50
2022-10-18T15:00:02.149Z,42.00
2022-10-18T15:02:33.882Z,39.00
2022-10-18T15:05:19.779Z,39.00
2022-10-18T15:07:49.759Z,40.00
2022-10-18T15:10:24.987Z,38.25
2022-10-18T15:13:10.521Z,39.25
2022-10-18T15:15:39.917Z,40.00
2022-10-18T15:18:08.643Z,40.25
2022-10-18T15:20:42.903Z,40.50
2022-10-18T15:23:31.619Z,38.25
2022-10-18T15:26:07.661Z,43.50
2022-10-18T15:28:50.715Z,40.33
2022-10-18T15:31:26.711Z,37.25
2022-10-18T15:34:09.073Z,41.00
2022-10-18T15:36:39.557Z,40.50
2022-10-18T15:39:21.857Z,36.25
2022-10-18T15:41:59.822Z,38.75
2022-10-18T15:44:32.479Z,37.50
2022-10-18T15:47:21.375Z,33.00
2022-10-18T15:49:55.643Z,35.00
2022-10-18T15:52:35.184Z,35.33
2022-10-18T15:55:55.933Z,36.00
2022-10-18T15:58:39.480Z,33.00
2022-10-18T16:01:22.455Z,34.50
2022-10-18T16:03:51.986Z,32.75
2022-10-18T16:06:20.581Z,32.50
2022-10-18T16:08:51.467Z,31.00
2022-10-18T16:11:22.975Z,32.50
2022-10-18T16:13:55.171Z,29.00
2022-10-18T16:16:28.491Z,31.00
2022-10-18T16:18:57.773Z,33.00
2022-10-18T16:21:29.337Z,32.50
2022-10-18T16:23:58.417Z,31.75
2022-10-18T16:26:28.229Z,33.25
2022-10-18T16:28:58.185Z,33.00
2022-10-18T16:31:29.913Z,30.00
2022-10-18T16:33:58.788Z,32.50
2022-10-18T16:36:30.091Z,33.50
2022-10-18T16:39:01.083Z,31.50
2022-10-18T16:41:29.669Z,32.25
2022-10-18T16:43:58.031Z,33.00
2022-10-18T16:46:29.311Z,32.25
2022-10-18T16:48:58.573Z,31.00
2022-10-18T16:51:27.667Z,31.00
2022-10-18T16:53:56.323Z,33.75
2022-10-18T16:56:27.568Z,33.00
2022-10-18T16:58:55.806Z,34.00
2022-10-18T17:01:25.247Z,36.00
2022-10-18T17:03:54.071Z,37.00
2022-10-18T17:06:31.526Z,36.50
2022-10-18T17:09:00.198Z,34.75
2022-10-18T17:11:29.074Z,37.00
2022-10-18T17:13:57.552Z,39.25
2022-10-18T17:16:34.198Z,41.00
2022-10-18T17:19:05.629Z,42.00
2022-10-18T17:21:34.739Z,39.00
2022-10-18T17:24:04.574Z,42.25
2022-10-18T17:26:34.355Z,38.00
2022-10-18T17:29:05.619Z,43.00
2022-10-18T17:31:35.872Z,41.33
2022-10-18T17:34:04.683Z,43.25
2022-10-18T17:36:34.207Z,41.00
2022-10-18T17:39:02.866Z,43.00
2022-10-18T17:41:31.465Z,43.00
2022-10-18T17:43:59.949Z,44.00
2022-10-18T17:46:28.462Z,44.00
2022-10-18T17:48:56.913Z,45.50
2022-10-18T17:51:25.442Z,45.33
2022-10-18T17:53:54.554Z,49.00
2022-10-18T17:56:23.207Z,47.00
2022-10-18T17:58:52.511Z,47.00
2022-10-18T18:01:23.323Z,48.25
2022-10-18T18:04:00.169Z,47.25
2022-10-18T18:06:34.067Z,46.00
2022-10-18T18:09:15.451Z,45.00
2022-10-18T18:11:48.453Z,48.75
2022-10-18T18:14:16.849Z,46.00
2022-10-18T18:16:47.171Z,45.00
2022-10-18T18:19:16.241Z,48.00
2022-10-18T18:21:45.168Z,47.75
2022-10-18T18:24:14.309Z,46.25
2022-10-18T18:26:43.611Z,48.00
2022-10-18T18:29:13.052Z,48.00
2022-10-18T18:31:44.052Z,47.50
2022-10-18T18:34:12.984Z,50.25
2022-10-18T18:36:41.750Z,47.00
2022-10-18T18:39:21.553Z,47.50
2022-10-18T18:41:52.508Z,49.50
2022-10-18T18:44:22.001Z,49.00
2022-10-18T18:46:50.711Z,49.25
2022-10-18T18:49:19.073Z,51.75
2022-10-18T18:51:47.607Z,51.75
2022-10-18T18:54:16.507Z,51.50
2022-10-18T18:56:45.209Z,54.00
2022-10-18T18:59:14.550Z,54.00
2022-10-18T19:01:43.470Z,52.00
2022-10-18T19:04:12.248Z,56.00
2022-10-18T19:06:43.203Z,57.25
2022-10-18T19:09:20.220Z,58.75
2022-10-18T19:11:54.020Z,53.67
2022-10-18T19:14:25.492Z,55.25
2022-10-18T19:16:59.074Z,59.00
2022-10-18T19:19:31.289Z,57.00
2022-10-18T19:22:02.348Z,57.00
2022-10-18T19:24:31.839Z,54.50
2022-10-18T19:27:03.989Z,56.25
2022-10-18T19:29:35.597Z,55.50
2022-10-18T19:32:12.718Z,60.00
2022-10-18T19:34:42.389Z,55.50
2022-10-18T19:37:13.588Z,57.75
2022-10-18T19:39:42.988Z,59.25
2022-10-18T19:42:16.012Z,59.00
2022-10-18T19:44:48.008Z,59.50
2022-10-18T19:47:18.115Z,54.50
2022-10-18T19:49:46.886Z,55.00
2022-10-18T19:52:16.100Z,54.75
2022-10-18T19:54:45.706Z,56.00
2022-10-18T19:57:15.175Z,59.25
2022-10-18T19:59:44.391Z,59.33
2022-10-18T20:02:16.150Z,58.50
2022-10-18T20:04:44.898Z,55.50
2022-10-18T20:07:13.809Z,56.00
2022-10-18T20:09:42.560Z,56.00
2022-10-18T20:12:11.650Z,54.00
2022-10-18T20:14:42.808Z,53.50
2022-10-18T20:17:14.020Z,56.00
2022-10-18T20:19:43.265Z,57.25
2022-10-18T20:22:12.431Z,56.25
2022-10-18T20:24:41.294Z,56.00
2022-10-18T20:27:10.106Z,56.25
2022-10-18T20:29:38.818Z,54.75
2022-10-18T20:32:08.999Z,53.00
2022-10-18T20:34:37.662Z,54.25
2022-10-18T20:37:06.530Z,54.00
2022-10-18T20:39:35.400Z,52.00
2022-10-18T20:42:04.378Z,52.00
2022-10-18T20:44:34.075Z,50.00
2022-10-18T20:47:02.604Z,51.50
2022-10-18T20:49:30.843Z,49.33
2022-10-18T20:51:59.259Z,45.50
2022-10-18T20:54:27.574Z,50.50
2022-10-18T20:56:55.880Z,47.00
2022-10-18T20:59:24.139Z,47.00
2022-10-18T21:01:52.723Z,51.00
2022-10-18T21:04:21.510Z,46.25
2022-10-18T21:06:50.115Z,46.00
2022-10-18T21:09:20.402Z,44.50
2022-10-18T21:11:51.288Z,45.00
2022-10-18T21:14:21.643Z,46.00
2022-10-18T21:16:51.899Z,46.00
2022-10-18T21:19:29.341Z,44.33
2022-10-18T21:21:58.575Z,46.00
2022-10-18T21:24:27.184Z,46.50
2022-10-18T21:26:56.513Z,46.67
2022-10-18T21:29:25.224Z,45.25
2022-10-18T21:31:55.665Z,42.50
2022-10-18T21:34:24.103Z,43.25
2022-10-18T21:36:52.733Z,43.00
2022-10-18T21:41:53.264Z,43.00
2022-10-18T21:44:21.904Z,44.33
2022-10-18T21:46:50.967Z,41.75
2022-10-18T21:49:19.679Z,43.00
2022-10-18T21:51:48.202Z,43.00
2022-10-18T21:54:17.612Z,44.50
2022-10-18T21:56:46.256Z,42.00
2022-10-18T21:59:14.588Z,46.50
2022-10-18T22:01:44.829Z,46.00
2022-10-18T22:04:27.265Z,39.25
2022-10-18T22:06:55.809Z,46.25
2022-10-18T22:09:24.267Z,41.00
2022-10-18T22:11:54.133Z,42.50
2022-10-18T22:14:23.167Z,43.00
2022-10-18T22:16:52.155Z,44.25
2022-10-18T22:19:20.641Z,42.75
2022-10-18T22:21:49.658Z,41.50
2022-10-18T22:24:17.868Z,40.00
2022-10-18T22:26:47.238Z,41.00
2022-10-18T22:29:18.257Z,39.00
2022-10-18T22:31:52.324Z,42.25
2022-10-18T22:34:24.310Z,43.25
2022-10-18T22:36:53.126Z,39.00
2022-10-18T22:39:21.907Z,41.00
2022-10-18T22:41:56.000Z,41.25
2022-10-18T22:44:24.453Z,40.00
2022-10-18T22:46:53.132Z,40.00
2022-10-18T22:49:21.717Z,44.00
2022-10-18T22:51:50.307Z,42.25
2022-10-18T22:54:18.658Z,41.00
2022-10-18T22:56:47.161Z,42.75
2022-10-18T22:59:15.436Z,42.33
2022-10-18T23:01:43.832Z,42.33
2022-10-18T23:04:12.234Z,41.00
2022-10-18T23:06:41.234Z,42.50
2022-10-18T23:09:11.183Z,38.25
2022-10-18T23:11:39.703Z,41.00
2022-10-18T23:14:08.133Z,44.00
2022-10-18T23:16:36.674Z,40.00
2022-10-18T23:19:05.009Z,41.75
2022-10-18T23:21:34.434Z,38.50
2022-10-18T23:24:03.635Z,38.75
2022-10-18T23:26:32.694Z,39.67
2022-10-18T23:29:01.248Z,42.00
2022-10-18T23:31:33.178Z,40.50
2022-10-18T23:34:04.786Z,42.25
2022-10-18T23:36:34.395Z,41.75
2022-10-18T23:39:04.055Z,40.50
2022-10-18T23:41:32.932Z,40.00
2022-10-18T23:44:02.556Z,43.00
2022-10-18T23:46:31.177Z,43.50
2022-10-18T23:48:59.448Z,38.50
2022-10-18T23:51:28.314Z,39.75
2022-10-18T23:53:56.514Z,40.00
2022-10-18T23:56:25.153Z,40.50
2022-10-18T23:58:53.313Z,40.33
